sensor_id;sensor_type;location;lat;lon;timestamp;P1;durP1;ratioP1;P2;durP2;ratioP2
31848;SDS011;18414;59.352;18.152;2023-05-23T00:01:38;8.03;;;3.93;;
31848;SDS011;18414;59.352;18.152;2023-05-23T00:04:03;5.63;;;3.93;;
31848;SDS011;18414;59.352;18.152;2023-05-23T00:06:29;5.80;;;3.87;;
31848;SDS011;18414;59.352;18.152;2023-05-23T00:08:55;6.57;;;3.70;;
31848;SDS011;18414;59.352;18.152;2023-05-23T00:11:20;5.90;;;3.67;;
31848;SDS011;18414;59.352;18.152;2023-05-23T00:13:51;7.77;;;3.97;;
31848;SDS011;18414;59.352;18.152;2023-05-23T00:16:16;5.90;;;3.93;;
31848;SDS011;18414;59.352;18.152;2023-05-23T00:18:42;5.53;;;3.63;;
31848;SDS011;18414;59.352;18.152;2023-05-23T00:21:09;5.43;;;3.63;;
31848;SDS011;18414;59.352;18.152;2023-05-23T00:23:35;7.20;;;3.73;;
31848;SDS011;18414;59.352;18.152;2023-05-23T00:26:00;5.00;;;3.60;;
31848;SDS011;18414;59.352;18.152;2023-05-23T00:28:25;5.47;;;4.00;;
31848;SDS011;18414;59.352;18.152;2023-05-23T00:30:51;7.40;;;3.80;;
31848;SDS011;18414;59.352;18.152;2023-05-23T00:33:16;5.03;;;3.80;;
31848;SDS011;18414;59.352;18.152;2023-05-23T00:35:45;6.60;;;3.73;;
31848;SDS011;18414;59.352;18.152;2023-05-23T00:38:11;8.23;;;3.87;;
31848;SDS011;18414;59.352;18.152;2023-05-23T00:40:38;8.20;;;4.20;;
31848;SDS011;18414;59.352;18.152;2023-05-23T00:43:04;13.60;;;4.47;;
31848;SDS011;18414;59.352;18.152;2023-05-23T00:45:29;12.03;;;4.00;;
31848;SDS011;18414;59.352;18.152;2023-05-23T00:47:55;7.10;;;3.97;;
31848;SDS011;18414;59.352;18.152;2023-05-23T00:50:20;5.93;;;3.90;;
31848;SDS011;18414;59.352;18.152;2023-05-23T00:52:46;7.30;;;3.83;;
31848;SDS011;18414;59.352;18.152;2023-05-23T00:55:12;10.00;;;3.77;;
31848;SDS011;18414;59.352;18.152;2023-05-23T00:57:38;5.60;;;3.90;;
31848;SDS011;18414;59.352;18.152;2023-05-23T01:00:06;5.50;;;3.40;;
31848;SDS011;18414;59.352;18.152;2023-05-23T01:02:35;7.47;;;3.97;;
31848;SDS011;18414;59.352;18.152;2023-05-23T01:05:05;6.87;;;3.90;;
31848;SDS011;18414;59.352;18.152;2023-05-23T01:07:31;5.13;;;3.60;;
31848;SDS011;18414;59.352;18.152;2023-05-23T01:09:56;6.30;;;3.53;;
31848;SDS011;18414;59.352;18.152;2023-05-23T01:12:28;8.40;;;3.70;;
31848;SDS011;18414;59.352;18.152;2023-05-23T01:15:11;5.53;;;3.63;;
31848;SDS011;18414;59.352;18.152;2023-05-23T01:17:43;6.30;;;3.40;;
31848;SDS011;18414;59.352;18.152;2023-05-23T01:20:18;6.37;;;3.03;;
31848;SDS011;18414;59.352;18.152;2023-05-23T01:28:34;8.67;;;3.80;;
31848;SDS011;18414;59.352;18.152;2023-05-23T01:31:02;4.50;;;3.57;;
31848;SDS011;18414;59.352;18.152;2023-05-23T01:33:28;5.80;;;3.50;;
31848;SDS011;18414;59.352;18.152;2023-05-23T01:35:55;5.47;;;3.60;;
31848;SDS011;18414;59.352;18.152;2023-05-23T01:38:22;7.43;;;3.37;;
31848;SDS011;18414;59.352;18.152;2023-05-23T01:40:47;5.90;;;3.37;;
31848;SDS011;18414;59.352;18.152;2023-05-23T01:43:13;4.67;;;3.20;;
31848;SDS011;18414;59.352;18.152;2023-05-23T01:45:39;4.77;;;3.33;;
31848;SDS011;18414;59.352;18.152;2023-05-23T01:48:04;4.20;;;3.20;;
31848;SDS011;18414;59.352;18.152;2023-05-23T01:50:30;5.40;;;3.00;;
31848;SDS011;18414;59.352;18.152;2023-05-23T01:52:56;4.83;;;3.20;;
31848;SDS011;18414;59.352;18.152;2023-05-23T01:55:22;6.57;;;3.60;;
31848;SDS011;18414;59.352;18.152;2023-05-23T01:57:50;5.40;;;3.30;;
31848;SDS011;18414;59.352;18.152;2023-05-23T02:00:16;5.13;;;3.10;;
31848;SDS011;18414;59.352;18.152;2023-05-23T02:02:42;8.80;;;3.40;;
31848;SDS011;18414;59.352;18.152;2023-05-23T02:05:10;4.40;;;3.47;;
31848;SDS011;18414;59.352;18.152;2023-05-23T02:07:36;3.20;;;2.90;;
31848;SDS011;18414;59.352;18.152;2023-05-23T02:10:02;3.10;;;2.30;;
31848;SDS011;18414;59.352;18.152;2023-05-23T02:12:28;3.50;;;2.47;;
31848;SDS011;18414;59.352;18.152;2023-05-23T02:14:56;5.47;;;2.80;;
31848;SDS011;18414;59.352;18.152;2023-05-23T02:17:22;3.13;;;2.40;;
31848;SDS011;18414;59.352;18.152;2023-05-23T02:19:48;4.23;;;2.77;;
31848;SDS011;18414;59.352;18.152;2023-05-23T02:22:13;5.23;;;2.43;;
31848;SDS011;18414;59.352;18.152;2023-05-23T02:24:39;3.93;;;2.63;;
31848;SDS011;18414;59.352;18.152;2023-05-23T02:27:04;2.50;;;2.20;;
31848;SDS011;18414;59.352;18.152;2023-05-23T02:29:30;3.07;;;2.40;;
31848;SDS011;18414;59.352;18.152;2023-05-23T02:31:55;2.83;;;2.37;;
31848;SDS011;18414;59.352;18.152;2023-05-23T02:34:20;4.23;;;2.37;;
31848;SDS011;18414;59.352;18.152;2023-05-23T02:36:46;3.07;;;2.30;;
31848;SDS011;18414;59.352;18.152;2023-05-23T02:39:11;4.37;;;2.40;;
31848;SDS011;18414;59.352;18.152;2023-05-23T02:41:37;3.67;;;2.43;;
31848;SDS011;18414;59.352;18.152;2023-05-23T02:44:02;4.23;;;2.50;;
31848;SDS011;18414;59.352;18.152;2023-05-23T02:46:27;2.30;;;2.03;;
31848;SDS011;18414;59.352;18.152;2023-05-23T02:48:53;2.40;;;1.90;;
31848;SDS011;18414;59.352;18.152;2023-05-23T02:51:18;3.40;;;2.67;;
31848;SDS011;18414;59.352;18.152;2023-05-23T02:53:43;4.17;;;2.30;;
31848;SDS011;18414;59.352;18.152;2023-05-23T02:56:09;2.20;;;1.80;;
31848;SDS011;18414;59.352;18.152;2023-05-23T02:58:34;2.80;;;2.23;;
31848;SDS011;18414;59.352;18.152;2023-05-23T03:01:03;2.10;;;1.90;;
31848;SDS011;18414;59.352;18.152;2023-05-23T03:03:28;3.13;;;1.80;;
31848;SDS011;18414;59.352;18.152;2023-05-23T03:05:55;5.70;;;2.67;;
31848;SDS011;18414;59.352;18.152;2023-05-23T03:08:30;7.67;;;2.53;;
31848;SDS011;18414;59.352;18.152;2023-05-23T03:10:55;2.90;;;2.53;;
31848;SDS011;18414;59.352;18.152;2023-05-23T03:13:21;3.20;;;2.50;;
31848;SDS011;18414;59.352;18.152;2023-05-23T03:15:46;2.30;;;1.80;;
31848;SDS011;18414;59.352;18.152;2023-05-23T03:18:11;3.40;;;2.40;;
31848;SDS011;18414;59.352;18.152;2023-05-23T03:20:37;6.77;;;3.67;;
31848;SDS011;18414;59.352;18.152;2023-05-23T03:23:02;2.20;;;2.00;;
31848;SDS011;18414;59.352;18.152;2023-05-23T03:25:27;3.43;;;2.23;;
31848;SDS011;18414;59.352;18.152;2023-05-23T03:27:53;2.37;;;1.90;;
31848;SDS011;18414;59.352;18.152;2023-05-23T03:30:18;3.17;;;2.30;;
31848;SDS011;18414;59.352;18.152;2023-05-23T03:32:44;3.00;;;2.70;;
31848;SDS011;18414;59.352;18.152;2023-05-23T03:35:10;3.97;;;2.40;;
31848;SDS011;18414;59.352;18.152;2023-05-23T03:37:36;3.43;;;2.60;;
31848;SDS011;18414;59.352;18.152;2023-05-23T03:40:01;2.80;;;2.20;;
31848;SDS011;18414;59.352;18.152;2023-05-23T03:42:27;2.67;;;2.30;;
31848;SDS011;18414;59.352;18.152;2023-05-23T03:44:52;3.33;;;2.50;;
31848;SDS011;18414;59.352;18.152;2023-05-23T03:47:18;2.67;;;2.40;;
31848;SDS011;18414;59.352;18.152;2023-05-23T03:49:43;3.60;;;2.30;;
31848;SDS011;18414;59.352;18.152;2023-05-23T03:52:09;3.40;;;2.57;;
31848;SDS011;18414;59.352;18.152;2023-05-23T03:54:34;3.23;;;2.20;;
31848;SDS011;18414;59.352;18.152;2023-05-23T03:57:00;3.63;;;2.30;;
31848;SDS011;18414;59.352;18.152;2023-05-23T03:59:26;1.70;;;1.50;;
31848;SDS011;18414;59.352;18.152;2023-05-23T04:01:52;3.67;;;2.10;;
31848;SDS011;18414;59.352;18.152;2023-05-23T04:04:17;2.40;;;2.20;;
31848;SDS011;18414;59.352;18.152;2023-05-23T04:06:44;2.33;;;2.13;;
31848;SDS011;18414;59.352;18.152;2023-05-23T04:09:11;2.33;;;2.03;;
31848;SDS011;18414;59.352;18.152;2023-05-23T04:11:37;4.27;;;2.10;;
31848;SDS011;18414;59.352;18.152;2023-05-23T04:14:03;3.17;;;2.60;;
31848;SDS011;18414;59.352;18.152;2023-05-23T04:16:28;3.80;;;2.73;;
31848;SDS011;18414;59.352;18.152;2023-05-23T04:18:56;4.10;;;2.30;;
31848;SDS011;18414;59.352;18.152;2023-05-23T04:21:22;2.93;;;2.63;;
31848;SDS011;18414;59.352;18.152;2023-05-23T04:23:47;4.37;;;2.50;;
31848;SDS011;18414;59.352;18.152;2023-05-23T04:26:13;4.20;;;2.63;;
31848;SDS011;18414;59.352;18.152;2023-05-23T04:28:38;3.00;;;2.37;;
31848;SDS011;18414;59.352;18.152;2023-05-23T04:31:04;3.53;;;2.60;;
31848;SDS011;18414;59.352;18.152;2023-05-23T04:33:29;3.37;;;2.17;;
31848;SDS011;18414;59.352;18.152;2023-05-23T04:35:55;3.43;;;2.20;;
31848;SDS011;18414;59.352;18.152;2023-05-23T04:38:21;6.13;;;2.60;;
31848;SDS011;18414;59.352;18.152;2023-05-23T04:40:49;3.43;;;2.50;;
31848;SDS011;18414;59.352;18.152;2023-05-23T04:43:15;3.67;;;2.53;;
31848;SDS011;18414;59.352;18.152;2023-05-23T04:45:40;3.80;;;2.50;;
31848;SDS011;18414;59.352;18.152;2023-05-23T04:48:06;3.30;;;2.53;;
31848;SDS011;18414;59.352;18.152;2023-05-23T04:50:32;5.20;;;2.87;;
31848;SDS011;18414;59.352;18.152;2023-05-23T04:52:58;3.58;;;2.67;;
31848;SDS011;18414;59.352;18.152;2023-05-23T04:55:23;2.50;;;2.30;;
31848;SDS011;18414;59.352;18.152;2023-05-23T04:57:50;5.82;;;2.75;;
31848;SDS011;18414;59.352;18.152;2023-05-23T05:00:15;4.45;;;2.47;;
31848;SDS011;18414;59.352;18.152;2023-05-23T05:02:41;3.53;;;2.45;;
31848;SDS011;18414;59.352;18.152;2023-05-23T05:05:07;3.90;;;2.25;;
31848;SDS011;18414;59.352;18.152;2023-05-23T05:07:33;3.40;;;2.05;;
31848;SDS011;18414;59.352;18.152;2023-05-23T05:09:59;5.63;;;2.72;;
31848;SDS011;18414;59.352;18.152;2023-05-23T05:12:25;2.88;;;2.30;;
31848;SDS011;18414;59.352;18.152;2023-05-23T05:14:50;4.10;;;2.50;;
31848;SDS011;18414;59.352;18.152;2023-05-23T05:17:15;3.22;;;2.33;;
31848;SDS011;18414;59.352;18.152;2023-05-23T05:19:42;3.35;;;2.25;;
31848;SDS011;18414;59.352;18.152;2023-05-23T05:22:07;5.05;;;2.58;;
31848;SDS011;18414;59.352;18.152;2023-05-23T05:24:34;3.50;;;2.35;;
31848;SDS011;18414;59.352;18.152;2023-05-23T05:27:00;4.18;;;2.63;;
31848;SDS011;18414;59.352;18.152;2023-05-23T05:29:25;5.18;;;2.35;;
31848;SDS011;18414;59.352;18.152;2023-05-23T05:31:51;4.00;;;2.45;;
31848;SDS011;18414;59.352;18.152;2023-05-23T05:34:16;4.00;;;2.42;;
31848;SDS011;18414;59.352;18.152;2023-05-23T05:36:42;3.17;;;2.55;;
31848;SDS011;18414;59.352;18.152;2023-05-23T05:39:12;3.38;;;2.17;;
31848;SDS011;18414;59.352;18.152;2023-05-23T05:41:40;4.43;;;2.13;;
31848;SDS011;18414;59.352;18.152;2023-05-23T05:44:06;6.10;;;2.50;;
31848;SDS011;18414;59.352;18.152;2023-05-23T05:46:32;4.32;;;2.25;;
31848;SDS011;18414;59.352;18.152;2023-05-23T05:48:57;4.53;;;2.25;;
31848;SDS011;18414;59.352;18.152;2023-05-23T05:51:23;4.43;;;2.42;;
31848;SDS011;18414;59.352;18.152;2023-05-23T05:53:48;4.63;;;2.30;;
31848;SDS011;18414;59.352;18.152;2023-05-23T05:56:13;3.55;;;2.15;;
31848;SDS011;18414;59.352;18.152;2023-05-23T05:58:40;3.70;;;2.10;;
31848;SDS011;18414;59.352;18.152;2023-05-23T06:01:06;6.25;;;2.40;;
31848;SDS011;18414;59.352;18.152;2023-05-23T06:03:31;4.22;;;2.10;;
31848;SDS011;18414;59.352;18.152;2023-05-23T06:05:58;4.38;;;2.42;;
31848;SDS011;18414;59.352;18.152;2023-05-23T06:08:23;4.03;;;2.25;;
31848;SDS011;18414;59.352;18.152;2023-05-23T06:10:49;6.45;;;2.25;;
31848;SDS011;18414;59.352;18.152;2023-05-23T06:13:14;4.75;;;2.45;;
31848;SDS011;18414;59.352;18.152;2023-05-23T06:15:40;4.45;;;2.50;;
31848;SDS011;18414;59.352;18.152;2023-05-23T06:18:05;4.65;;;2.10;;
31848;SDS011;18414;59.352;18.152;2023-05-23T06:20:30;7.28;;;2.75;;
31848;SDS011;18414;59.352;18.152;2023-05-23T06:22:56;5.55;;;2.33;;
31848;SDS011;18414;59.352;18.152;2023-05-23T06:25:21;4.72;;;2.20;;
31848;SDS011;18414;59.352;18.152;2023-05-23T06:27:47;3.95;;;2.17;;
31848;SDS011;18414;59.352;18.152;2023-05-23T06:30:14;5.13;;;2.60;;
31848;SDS011;18414;59.352;18.152;2023-05-23T06:32:39;3.45;;;2.28;;
31848;SDS011;18414;59.352;18.152;2023-05-23T06:35:05;5.57;;;2.53;;
31848;SDS011;18414;59.352;18.152;2023-05-23T06:37:31;3.50;;;2.00;;
31848;SDS011;18414;59.352;18.152;2023-05-23T06:39:57;2.25;;;2.03;;
31848;SDS011;18414;59.352;18.152;2023-05-23T06:42:22;4.88;;;2.40;;
31848;SDS011;18414;59.352;18.152;2023-05-23T06:44:48;14.82;;;2.17;;
31848;SDS011;18414;59.352;18.152;2023-05-23T06:47:13;3.20;;;2.20;;
31848;SDS011;18414;59.352;18.152;2023-05-23T06:49:40;4.32;;;2.20;;
31848;SDS011;18414;59.352;18.152;2023-05-23T06:52:05;4.55;;;2.20;;
31848;SDS011;18414;59.352;18.152;2023-05-23T06:54:32;3.88;;;1.98;;
31848;SDS011;18414;59.352;18.152;2023-05-23T06:56:57;6.50;;;2.70;;
31848;SDS011;18414;59.352;18.152;2023-05-23T06:59:23;5.03;;;2.53;;
31848;SDS011;18414;59.352;18.152;2023-05-23T07:01:48;6.43;;;2.10;;
31848;SDS011;18414;59.352;18.152;2023-05-23T07:04:13;3.97;;;2.13;;
31848;SDS011;18414;59.352;18.152;2023-05-23T07:06:39;2.95;;;2.00;;
31848;SDS011;18414;59.352;18.152;2023-05-23T07:09:04;6.47;;;2.47;;
31848;SDS011;18414;59.352;18.152;2023-05-23T07:11:30;2.70;;;2.25;;
31848;SDS011;18414;59.352;18.152;2023-05-23T07:13:57;7.75;;;3.13;;
31848;SDS011;18414;59.352;18.152;2023-05-23T07:16:22;4.88;;;2.30;;
31848;SDS011;18414;59.352;18.152;2023-05-23T07:18:48;6.53;;;2.50;;
31848;SDS011;18414;59.352;18.152;2023-05-23T07:21:13;5.18;;;2.40;;
31848;SDS011;18414;59.352;18.152;2023-05-23T07:23:39;6.05;;;2.80;;
31848;SDS011;18414;59.352;18.152;2023-05-23T07:26:05;5.00;;;2.70;;
31848;SDS011;18414;59.352;18.152;2023-05-23T07:28:33;3.15;;;2.53;;
31848;SDS011;18414;59.352;18.152;2023-05-23T07:31:00;5.85;;;2.35;;
31848;SDS011;18414;59.352;18.152;2023-05-23T07:33:26;9.23;;;2.50;;
31848;SDS011;18414;59.352;18.152;2023-05-23T07:35:51;5.78;;;2.63;;
31848;SDS011;18414;59.352;18.152;2023-05-23T07:38:16;6.55;;;2.85;;
31848;SDS011;18414;59.352;18.152;2023-05-23T07:40:42;6.50;;;2.45;;
31848;SDS011;18414;59.352;18.152;2023-05-23T07:43:08;6.95;;;2.72;;
31848;SDS011;18414;59.352;18.152;2023-05-23T07:45:33;10.27;;;2.47;;
31848;SDS011;18414;59.352;18.152;2023-05-23T07:48:00;8.40;;;2.40;;
31848;SDS011;18414;59.352;18.152;2023-05-23T07:50:26;5.03;;;2.10;;
31848;SDS011;18414;59.352;18.152;2023-05-23T07:52:51;8.73;;;2.55;;
31848;SDS011;18414;59.352;18.152;2023-05-23T07:55:17;4.60;;;2.67;;
31848;SDS011;18414;59.352;18.152;2023-05-23T07:57:42;3.50;;;2.42;;
31848;SDS011;18414;59.352;18.152;2023-05-23T08:00:08;4.47;;;2.20;;
31848;SDS011;18414;59.352;18.152;2023-05-23T08:02:34;9.80;;;2.50;;
31848;SDS011;18414;59.352;18.152;2023-05-23T08:04:59;4.35;;;2.30;;
31848;SDS011;18414;59.352;18.152;2023-05-23T08:07:24;3.45;;;2.20;;
31848;SDS011;18414;59.352;18.152;2023-05-23T08:09:50;5.90;;;2.47;;
31848;SDS011;18414;59.352;18.152;2023-05-23T08:12:15;3.45;;;2.38;;
31848;SDS011;18414;59.352;18.152;2023-05-23T08:14:41;5.72;;;2.30;;
31848;SDS011;18414;59.352;18.152;2023-05-23T08:17:06;6.05;;;2.40;;
31848;SDS011;18414;59.352;18.152;2023-05-23T08:19:31;3.67;;;2.20;;
31848;SDS011;18414;59.352;18.152;2023-05-23T08:21:57;7.22;;;2.33;;
31848;SDS011;18414;59.352;18.152;2023-05-23T08:24:22;5.18;;;2.33;;
31848;SDS011;18414;59.352;18.152;2023-05-23T08:26:48;4.87;;;2.30;;
31848;SDS011;18414;59.352;18.152;2023-05-23T08:29:14;5.82;;;2.30;;
31848;SDS011;18414;59.352;18.152;2023-05-23T08:31:40;3.45;;;2.22;;
31848;SDS011;18414;59.352;18.152;2023-05-23T08:34:05;2.28;;;2.08;;
31848;SDS011;18414;59.352;18.152;2023-05-23T08:36:31;7.18;;;1.95;;
31848;SDS011;18414;59.352;18.152;2023-05-23T08:39:00;5.25;;;1.92;;
31848;SDS011;18414;59.352;18.152;2023-05-23T08:41:26;5.03;;;1.80;;
31848;SDS011;18414;59.352;18.152;2023-05-23T08:43:51;3.30;;;2.17;;
31848;SDS011;18414;59.352;18.152;2023-05-23T08:46:17;4.57;;;2.25;;
31848;SDS011;18414;59.352;18.152;2023-05-23T08:48:43;4.22;;;1.80;;
31848;SDS011;18414;59.352;18.152;2023-05-23T08:51:16;7.07;;;2.13;;
31848;SDS011;18414;59.352;18.152;2023-05-23T08:53:42;4.60;;;2.08;;
31848;SDS011;18414;59.352;18.152;2023-05-23T08:56:12;3.95;;;2.08;;
31848;SDS011;18414;59.352;18.152;2023-05-23T08:58:38;2.92;;;1.88;;
31848;SDS011;18414;59.352;18.152;2023-05-23T09:01:05;3.47;;;1.95;;
31848;SDS011;18414;59.352;18.152;2023-05-23T09:03:32;4.95;;;2.20;;
31848;SDS011;18414;59.352;18.152;2023-05-23T09:06:10;3.80;;;2.13;;
31848;SDS011;18414;59.352;18.152;2023-05-23T09:08:36;6.38;;;2.08;;
31848;SDS011;18414;59.352;18.152;2023-05-23T09:11:03;3.20;;;2.20;;
31848;SDS011;18414;59.352;18.152;2023-05-23T09:13:29;3.55;;;2.15;;
31848;SDS011;18414;59.352;18.152;2023-05-23T09:15:56;5.22;;;2.05;;
31848;SDS011;18414;59.352;18.152;2023-05-23T09:18:23;5.40;;;1.95;;
31848;SDS011;18414;59.352;18.152;2023-05-23T09:20:52;4.30;;;2.28;;
31848;SDS011;18414;59.352;18.152;2023-05-23T09:23:18;3.38;;;1.80;;
31848;SDS011;18414;59.352;18.152;2023-05-23T09:25:47;6.28;;;2.13;;
31848;SDS011;18414;59.352;18.152;2023-05-23T09:28:13;4.32;;;2.30;;
31848;SDS011;18414;59.352;18.152;2023-05-23T09:30:39;3.58;;;1.90;;
31848;SDS011;18414;59.352;18.152;2023-05-23T09:33:04;2.72;;;2.03;;
31848;SDS011;18414;59.352;18.152;2023-05-23T09:35:30;6.32;;;2.10;;
31848;SDS011;18414;59.352;18.152;2023-05-23T09:37:56;3.03;;;1.92;;
31848;SDS011;18414;59.352;18.152;2023-05-23T09:40:29;2.20;;;1.83;;
31848;SDS011;18414;59.352;18.152;2023-05-23T09:43:00;4.43;;;1.80;;
31848;SDS011;18414;59.352;18.152;2023-05-23T09:45:31;3.53;;;1.92;;
31848;SDS011;18414;59.352;18.152;2023-05-23T09:47:57;3.42;;;2.00;;
31848;SDS011;18414;59.352;18.152;2023-05-23T09:50:22;3.50;;;1.97;;
31848;SDS011;18414;59.352;18.152;2023-05-23T09:52:50;1.48;;;1.35;;
31848;SDS011;18414;59.352;18.152;2023-05-23T09:55:17;3.03;;;1.80;;
31848;SDS011;18414;59.352;18.152;2023-05-23T09:57:43;5.47;;;1.95;;
31848;SDS011;18414;59.352;18.152;2023-05-23T10:00:10;6.72;;;1.80;;
31848;SDS011;18414;59.352;18.152;2023-05-23T10:05:27;5.63;;;1.80;;
31848;SDS011;18414;59.352;18.152;2023-05-23T10:07:57;5.38;;;1.85;;
31848;SDS011;18414;59.352;18.152;2023-05-23T10:10:28;2.13;;;1.75;;
31848;SDS011;18414;59.352;18.152;2023-05-23T10:12:55;5.15;;;2.22;;
31848;SDS011;18414;59.352;18.152;2023-05-23T10:15:22;2.80;;;2.33;;
31848;SDS011;18414;59.352;18.152;2023-05-23T10:18:02;2.97;;;2.00;;
31848;SDS011;18414;59.352;18.152;2023-05-23T10:20:32;4.05;;;1.92;;
31848;SDS011;18414;59.352;18.152;2023-05-23T10:22:59;5.55;;;2.00;;
31848;SDS011;18414;59.352;18.152;2023-05-23T10:25:25;7.90;;;2.25;;
31848;SDS011;18414;59.352;18.152;2023-05-23T10:27:53;3.70;;;1.90;;
31848;SDS011;18414;59.352;18.152;2023-05-23T10:30:23;8.90;;;2.30;;
31848;SDS011;18414;59.352;18.152;2023-05-23T10:32:51;4.63;;;1.83;;
31848;SDS011;18414;59.352;18.152;2023-05-23T10:38:08;3.42;;;2.42;;
31848;SDS011;18414;59.352;18.152;2023-05-23T10:40:52;3.70;;;2.08;;
31848;SDS011;18414;59.352;18.152;2023-05-23T10:46:11;5.18;;;2.20;;
31848;SDS011;18414;59.352;18.152;2023-05-23T10:48:41;3.60;;;2.00;;
31848;SDS011;18414;59.352;18.152;2023-05-23T10:51:11;4.38;;;1.80;;
31848;SDS011;18414;59.352;18.152;2023-05-23T10:53:42;2.08;;;1.88;;
31848;SDS011;18414;59.352;18.152;2023-05-23T10:56:09;3.72;;;2.15;;
31848;SDS011;18414;59.352;18.152;2023-05-23T10:58:37;4.57;;;2.17;;
31848;SDS011;18414;59.352;18.152;2023-05-23T11:01:06;2.30;;;2.10;;
31848;SDS011;18414;59.352;18.152;2023-05-23T11:03:37;3.25;;;1.80;;
31848;SDS011;18414;59.352;18.152;2023-05-23T11:06:28;4.88;;;1.95;;
31848;SDS011;18414;59.352;18.152;2023-05-23T11:09:12;4.28;;;2.15;;
31848;SDS011;18414;59.352;18.152;2023-05-23T11:11:51;3.53;;;1.73;;
31848;SDS011;18414;59.352;18.152;2023-05-23T11:14:31;4.57;;;1.77;;
31848;SDS011;18414;59.352;18.152;2023-05-23T11:16:57;2.75;;;1.95;;
31848;SDS011;18414;59.352;18.152;2023-05-23T11:19:41;5.78;;;2.10;;
31848;SDS011;18414;59.352;18.152;2023-05-23T11:22:20;3.65;;;1.70;;
31848;SDS011;18414;59.352;18.152;2023-05-23T11:24:50;3.60;;;1.90;;
31848;SDS011;18414;59.352;18.152;2023-05-23T11:27:25;3.67;;;2.17;;
31848;SDS011;18414;59.352;18.152;2023-05-23T11:32:33;8.73;;;2.45;;
31848;SDS011;18414;59.352;18.152;2023-05-23T11:34:59;6.93;;;1.90;;
31848;SDS011;18414;59.352;18.152;2023-05-23T11:37:26;3.33;;;2.40;;
31848;SDS011;18414;59.352;18.152;2023-05-23T11:39:52;3.10;;;1.77;;
31848;SDS011;18414;59.352;18.152;2023-05-23T11:42:19;4.90;;;2.25;;
31848;SDS011;18414;59.352;18.152;2023-05-23T11:44:47;4.35;;;1.98;;
31848;SDS011;18414;59.352;18.152;2023-05-23T11:47:13;3.28;;;2.15;;
31848;SDS011;18414;59.352;18.152;2023-05-23T11:49:39;2.95;;;2.00;;
31848;SDS011;18414;59.352;18.152;2023-05-23T11:52:05;3.80;;;2.17;;
31848;SDS011;18414;59.352;18.152;2023-05-23T11:54:31;2.92;;;2.00;;
31848;SDS011;18414;59.352;18.152;2023-05-23T11:56:59;4.88;;;2.03;;
31848;SDS011;18414;59.352;18.152;2023-05-23T11:59:25;6.70;;;2.17;;
31848;SDS011;18414;59.352;18.152;2023-05-23T12:01:52;6.22;;;2.35;;
31848;SDS011;18414;59.352;18.152;2023-05-23T12:04:18;2.25;;;1.70;;
31848;SDS011;18414;59.352;18.152;2023-05-23T12:06:47;5.75;;;2.08;;
31848;SDS011;18414;59.352;18.152;2023-05-23T12:09:12;3.95;;;2.10;;
31848;SDS011;18414;59.352;18.152;2023-05-23T12:11:39;2.40;;;1.90;;
31848;SDS011;18414;59.352;18.152;2023-05-23T12:14:05;4.18;;;2.00;;
31848;SDS011;18414;59.352;18.152;2023-05-23T12:16:31;3.65;;;1.90;;
31848;SDS011;18414;59.352;18.152;2023-05-23T12:18:57;2.20;;;1.90;;
31848;SDS011;18414;59.352;18.152;2023-05-23T12:21:24;3.10;;;1.90;;
31848;SDS011;18414;59.352;18.152;2023-05-23T12:23:50;6.07;;;2.10;;
31848;SDS011;18414;59.352;18.152;2023-05-23T12:26:16;6.75;;;2.20;;
31848;SDS011;18414;59.352;18.152;2023-05-23T12:28:42;5.43;;;1.83;;
31848;SDS011;18414;59.352;18.152;2023-05-23T12:31:11;6.05;;;2.17;;
31848;SDS011;18414;59.352;18.152;2023-05-23T12:33:38;2.10;;;1.88;;
31848;SDS011;18414;59.352;18.152;2023-05-23T12:36:05;2.00;;;1.70;;
31848;SDS011;18414;59.352;18.152;2023-05-23T12:38:34;3.22;;;1.92;;
31848;SDS011;18414;59.352;18.152;2023-05-23T12:41:11;4.95;;;2.03;;
31848;SDS011;18414;59.352;18.152;2023-05-23T12:43:47;8.25;;;2.08;;
31848;SDS011;18414;59.352;18.152;2023-05-23T12:46:13;6.65;;;2.00;;
31848;SDS011;18414;59.352;18.152;2023-05-23T12:48:39;3.60;;;1.70;;
31848;SDS011;18414;59.352;18.152;2023-05-23T12:51:05;3.83;;;2.20;;
31848;SDS011;18414;59.352;18.152;2023-05-23T12:53:30;4.45;;;2.30;;
31848;SDS011;18414;59.352;18.152;2023-05-23T12:55:55;3.35;;;2.20;;
31848;SDS011;18414;59.352;18.152;2023-05-23T12:58:23;2.95;;;1.90;;
31848;SDS011;18414;59.352;18.152;2023-05-23T13:00:49;3.75;;;1.70;;
31848;SDS011;18414;59.352;18.152;2023-05-23T13:03:14;3.28;;;2.15;;
31848;SDS011;18414;59.352;18.152;2023-05-23T13:05:39;3.35;;;2.00;;
31848;SDS011;18414;59.352;18.152;2023-05-23T13:08:05;4.03;;;2.03;;
31848;SDS011;18414;59.352;18.152;2023-05-23T13:10:31;2.95;;;1.88;;
31848;SDS011;18414;59.352;18.152;2023-05-23T13:12:56;2.65;;;2.00;;
31848;SDS011;18414;59.352;18.152;2023-05-23T13:15:22;2.30;;;1.80;;
31848;SDS011;18414;59.352;18.152;2023-05-23T13:17:47;2.42;;;1.85;;
31848;SDS011;18414;59.352;18.152;2023-05-23T13:20:13;5.40;;;1.83;;
31848;SDS011;18414;59.352;18.152;2023-05-23T13:22:39;2.25;;;1.90;;
31848;SDS011;18414;59.352;18.152;2023-05-23T13:25:05;3.30;;;1.98;;
31848;SDS011;18414;59.352;18.152;2023-05-23T13:27:32;4.30;;;1.92;;
31848;SDS011;18414;59.352;18.152;2023-05-23T13:29:57;4.28;;;2.53;;
31848;SDS011;18414;59.352;18.152;2023-05-23T13:32:23;4.10;;;1.85;;
31848;SDS011;18414;59.352;18.152;2023-05-23T13:34:48;3.40;;;2.10;;
31848;SDS011;18414;59.352;18.152;2023-05-23T13:37:13;2.08;;;1.70;;
31848;SDS011;18414;59.352;18.152;2023-05-23T13:39:39;2.17;;;1.95;;
31848;SDS011;18414;59.352;18.152;2023-05-23T13:42:04;2.45;;;1.80;;
31848;SDS011;18414;59.352;18.152;2023-05-23T13:44:31;3.05;;;1.92;;
31848;SDS011;18414;59.352;18.152;2023-05-23T13:46:57;3.15;;;1.90;;
31848;SDS011;18414;59.352;18.152;2023-05-23T13:49:25;4.35;;;1.90;;
31848;SDS011;18414;59.352;18.152;2023-05-23T13:51:50;2.78;;;2.08;;
31848;SDS011;18414;59.352;18.152;2023-05-23T13:54:16;3.05;;;2.10;;
31848;SDS011;18414;59.352;18.152;2023-05-23T13:56:41;7.63;;;2.20;;
31848;SDS011;18414;59.352;18.152;2023-05-23T13:59:08;2.65;;;1.90;;
31848;SDS011;18414;59.352;18.152;2023-05-23T14:01:33;2.25;;;1.80;;
31848;SDS011;18414;59.352;18.152;2023-05-23T14:03:59;2.65;;;1.75;;
31848;SDS011;18414;59.352;18.152;2023-05-23T14:06:24;2.90;;;1.80;;
31848;SDS011;18414;59.352;18.152;2023-05-23T14:08:50;1.70;;;1.60;;
31848;SDS011;18414;59.352;18.152;2023-05-23T14:11:15;3.45;;;1.67;;
31848;SDS011;18414;59.352;18.152;2023-05-23T14:13:40;4.07;;;1.70;;
31848;SDS011;18414;59.352;18.152;2023-05-23T14:16:06;5.10;;;1.88;;
31848;SDS011;18414;59.352;18.152;2023-05-23T14:18:31;2.13;;;1.70;;
31848;SDS011;18414;59.352;18.152;2023-05-23T14:20:57;1.65;;;1.33;;
31848;SDS011;18414;59.352;18.152;2023-05-23T14:23:23;3.72;;;1.83;;
31848;SDS011;18414;59.352;18.152;2023-05-23T14:25:50;3.75;;;1.90;;
31848;SDS011;18414;59.352;18.152;2023-05-23T14:28:16;2.38;;;1.58;;
31848;SDS011;18414;59.352;18.152;2023-05-23T14:30:41;2.35;;;1.98;;
31848;SDS011;18414;59.352;18.152;2023-05-23T14:33:06;4.90;;;2.20;;
31848;SDS011;18414;59.352;18.152;2023-05-23T14:35:32;2.72;;;1.90;;
31848;SDS011;18414;59.352;18.152;2023-05-23T14:37:57;2.58;;;1.75;;
31848;SDS011;18414;59.352;18.152;2023-05-23T14:40:22;1.83;;;1.60;;
31848;SDS011;18414;59.352;18.152;2023-05-23T14:42:48;6.60;;;1.77;;
31848;SDS011;18414;59.352;18.152;2023-05-23T14:45:14;4.00;;;1.80;;
31848;SDS011;18414;59.352;18.152;2023-05-23T14:47:39;3.67;;;1.83;;